createdAt,value
2023-03-21T00:01:05.206Z,56.60
2023-03-21T00:03:35.369Z,56.70
2023-03-21T00:08:59.668Z,56.70
2023-03-21T00:11:32.301Z,56.80
2023-03-21T00:14:05.894Z,56.80
2023-03-21T00:16:40.728Z,56.80
2023-03-21T00:19:11.379Z,56.80
2023-03-21T00:21:52.361Z,56.80
2023-03-21T00:24:32.788Z,56.90
2023-03-21T00:30:01.671Z,57.00
2023-03-21T00:32:30.444Z,57.00
2023-03-21T00:35:26.132Z,57.10
2023-03-21T00:37:57.151Z,57.00
2023-03-21T00:40:32.965Z,57.10
2023-03-21T00:43:06.865Z,57.10
2023-03-21T00:45:36.279Z,57.10
2023-03-21T00:48:08.464Z,57.20
2023-03-21T00:50:41.223Z,57.20
2023-03-21T00:53:10.847Z,57.20
2023-03-21T00:55:41.248Z,57.20
2023-03-21T00:58:10.390Z,57.20
2023-03-21T01:00:37.519Z,57.20
2023-03-21T01:03:23.873Z,57.20
2023-03-21T01:06:07.444Z,57.20
2023-03-21T01:08:52.189Z,57.30
2023-03-21T01:11:32.073Z,57.30
2023-03-21T01:14:18.603Z,57.40
2023-03-21T01:16:56.245Z,57.40
2023-03-21T01:19:40.939Z,57.40
2023-03-21T01:22:24.541Z,57.40
2023-03-21T01:24:58.632Z,57.40
2023-03-21T01:27:31.164Z,57.50
2023-03-21T01:30:06.275Z,57.50
2023-03-21T01:32:39.290Z,57.50
2023-03-21T01:35:09.984Z,57.50
2023-03-21T01:37:41.218Z,57.50
2023-03-21T01:40:19.814Z,57.50
2023-03-21T01:42:47.901Z,57.50
2023-03-21T01:46:01.871Z,57.50
2023-03-21T01:48:35.181Z,57.50
2023-03-21T01:51:06.197Z,57.50
2023-03-21T01:53:41.779Z,57.50
2023-03-21T01:56:37.528Z,57.50
2023-03-21T01:59:15.974Z,57.50
2023-03-21T02:01:48.660Z,57.60
2023-03-21T02:04:28.024Z,57.60
2023-03-21T02:07:12.318Z,57.60
2023-03-21T02:09:53.509Z,57.50
2023-03-21T02:12:25.010Z,57.60
2023-03-21T02:14:56.836Z,57.60
2023-03-21T02:17:47.502Z,57.60
2023-03-21T02:20:43.780Z,57.50
2023-03-21T02:23:42.583Z,57.60
2023-03-21T02:26:42.003Z,57.60
2023-03-21T02:29:52.170Z,57.60
2023-03-21T02:33:19.199Z,57.50
2023-03-21T02:36:18.173Z,57.60
2023-03-21T02:38:53.972Z,57.70
2023-03-21T02:41:50.198Z,57.70
2023-03-21T02:44:59.299Z,57.70
2023-03-21T02:47:44.809Z,57.60
2023-03-21T02:50:50.670Z,57.70
2023-03-21T02:53:25.748Z,57.70
2023-03-21T02:55:56.936Z,57.70
2023-03-21T02:58:30.566Z,57.70
2023-03-21T03:00:58.681Z,57.70
2023-03-21T03:03:34.333Z,57.60
2023-03-21T03:06:13.658Z,57.70
2023-03-21T03:09:24.079Z,57.70
2023-03-21T03:12:03.385Z,57.60
2023-03-21T03:15:04.357Z,57.60
2023-03-21T03:18:07.186Z,57.60
2023-03-21T03:21:07.986Z,57.60
2023-03-21T03:24:07.723Z,57.60
2023-03-21T03:26:46.359Z,57.60
2023-03-21T03:29:25.229Z,57.70
2023-03-21T03:32:09.329Z,57.70
2023-03-21T03:34:41.890Z,57.80
2023-03-21T03:37:29.012Z,57.80
2023-03-21T03:40:27.308Z,57.70
2023-03-21T03:43:02.995Z,57.70
2023-03-21T03:45:41.815Z,57.70
2023-03-21T03:48:40.152Z,57.70
2023-03-21T03:51:13.105Z,57.70
2023-03-21T03:54:35.440Z,57.60
2023-03-21T03:57:08.882Z,57.60
2023-03-21T03:59:45.040Z,57.70
2023-03-21T04:02:22.057Z,57.70
2023-03-21T04:04:55.710Z,57.70
2023-03-21T04:07:24.660Z,57.70
2023-03-21T04:09:57.212Z,57.70
2023-03-21T04:12:30.352Z,57.80
2023-03-21T04:15:09.480Z,57.80
2023-03-21T04:20:35.980Z,57.80
2023-03-21T04:23:15.189Z,57.90
2023-03-21T04:25:58.840Z,57.90
2023-03-21T04:28:35.690Z,57.80
2023-03-21T04:33:55.461Z,57.80
2023-03-21T04:36:42.250Z,57.80
2023-03-21T04:39:17.143Z,57.80
2023-03-21T04:41:57.829Z,57.80
2023-03-21T04:44:32.328Z,57.80
2023-03-21T04:47:04.570Z,57.90
2023-03-21T04:49:34.191Z,57.90
2023-03-21T04:52:05.918Z,57.90
2023-03-21T04:54:35.621Z,57.90
2023-03-21T04:57:07.190Z,57.90
2023-03-21T04:59:36.991Z,57.90
2023-03-21T05:02:06.212Z,57.90
2023-03-21T05:04:38.654Z,57.90
2023-03-21T05:07:12.144Z,57.90
2023-03-21T05:09:43.903Z,57.90
2023-03-21T05:12:14.524Z,58.00
2023-03-21T05:14:46.191Z,58.00
2023-03-21T05:17:25.370Z,58.60
2023-03-21T05:19:58.758Z,58.00
2023-03-21T05:22:31.268Z,58.00
2023-03-21T05:27:59.082Z,57.90
2023-03-21T05:31:09.256Z,58.00
2023-03-21T05:33:37.595Z,58.00
2023-03-21T05:36:07.809Z,58.10
2023-03-21T05:38:34.683Z,58.10
2023-03-21T05:41:07.205Z,58.10
2023-03-21T05:43:36.266Z,58.00
2023-03-21T05:46:17.918Z,58.10
2023-03-21T05:48:48.522Z,58.10
2023-03-21T05:51:21.546Z,58.10
2023-03-21T05:53:52.517Z,58.00
2023-03-21T05:56:26.505Z,58.00
2023-03-21T05:58:57.950Z,58.00
2023-03-21T06:01:27.239Z,58.00
2023-03-21T06:03:58.523Z,58.00
2023-03-21T06:06:31.271Z,58.00
2023-03-21T06:09:03.998Z,58.10
2023-03-21T06:11:38.869Z,58.10
2023-03-21T06:14:12.189Z,58.90
2023-03-21T06:16:43.719Z,58.40
2023-03-21T06:19:12.783Z,58.30
2023-03-21T06:21:43.140Z,58.30
2023-03-21T06:24:15.957Z,58.20
2023-03-21T06:26:47.225Z,58.20
2023-03-21T06:29:18.637Z,58.10
2023-03-21T06:31:48.099Z,58.10
2023-03-21T06:34:19.512Z,58.10
2023-03-21T06:36:49.935Z,58.00
2023-03-21T06:39:20.588Z,58.00
2023-03-21T06:41:52.595Z,58.00
2023-03-21T06:44:25.184Z,58.00
2023-03-21T06:46:58.304Z,57.90
2023-03-21T06:49:30.585Z,57.90
2023-03-21T06:52:00.587Z,57.90
2023-03-21T06:54:33.889Z,57.80
2023-03-21T06:57:03.394Z,57.80
2023-03-21T06:59:35.030Z,57.80
2023-03-21T07:02:05.819Z,57.80
2023-03-21T07:04:34.762Z,57.70
2023-03-21T07:07:06.336Z,57.80
2023-03-21T07:09:34.175Z,57.70
2023-03-21T07:12:04.283Z,57.70
2023-03-21T07:14:35.340Z,57.70
2023-03-21T07:17:05.289Z,57.60
2023-03-21T07:19:32.036Z,57.60
2023-03-21T07:25:02.442Z,57.70
2023-03-21T07:27:33.586Z,57.60
2023-03-21T07:30:04.118Z,57.70
2023-03-21T07:32:40.515Z,57.60
2023-03-21T07:35:25.952Z,57.60
2023-03-21T07:37:58.330Z,57.60
2023-03-21T07:40:30.368Z,57.60
2023-03-21T07:43:06.988Z,57.50
2023-03-21T07:45:37.554Z,57.70
2023-03-21T07:48:06.812Z,57.60
2023-03-21T07:50:40.157Z,57.60
2023-03-21T07:53:10.349Z,57.60
2023-03-21T07:55:39.798Z,57.90
2023-03-21T07:58:07.940Z,57.90
2023-03-21T08:00:38.329Z,58.20
2023-03-21T08:03:12.693Z,58.10
2023-03-21T08:05:46.035Z,58.10
2023-03-21T08:08:13.938Z,58.00
2023-03-21T08:10:46.752Z,57.80
2023-03-21T08:13:18.319Z,57.60
2023-03-21T08:15:48.230Z,57.40
2023-03-21T08:18:16.777Z,57.30
2023-03-21T08:20:48.666Z,57.20
2023-03-21T08:23:21.315Z,57.00
2023-03-21T08:25:52.790Z,56.90
2023-03-21T08:28:23.157Z,56.80
2023-03-21T08:30:56.489Z,56.70
2023-03-21T08:33:28.660Z,56.80
2023-03-21T08:36:01.794Z,56.60
2023-03-21T08:38:31.940Z,56.50
2023-03-21T08:41:01.699Z,56.40
2023-03-21T08:43:29.335Z,56.30
2023-03-21T08:45:57.769Z,56.20
2023-03-21T08:48:29.955Z,56.20
2023-03-21T08:51:01.212Z,56.80
2023-03-21T08:53:30.497Z,56.70
2023-03-21T08:56:02.402Z,56.20
2023-03-21T08:58:34.995Z,56.30
2023-03-21T09:01:10.201Z,56.40
2023-03-21T09:03:38.835Z,56.50
2023-03-21T09:06:09.215Z,56.70
2023-03-21T09:08:41.575Z,56.70
2023-03-21T09:11:14.361Z,57.10
2023-03-21T09:13:45.694Z,57.10
2023-03-21T09:16:14.681Z,57.00
2023-03-21T09:18:47.361Z,57.20
2023-03-21T09:21:20.991Z,56.20
2023-03-21T09:24:00.033Z,56.00
2023-03-21T09:26:31.516Z,55.80
2023-03-21T09:29:08.066Z,55.70
2023-03-21T09:31:36.349Z,55.20
2023-03-21T09:34:05.577Z,55.10
2023-03-21T09:42:39.597Z,55.20
2023-03-21T09:45:35.778Z,55.30
2023-03-21T09:48:08.023Z,55.40
2023-03-21T09:50:44.891Z,55.40
2023-03-21T09:53:33.286Z,54.80
2023-03-21T09:56:07.129Z,54.50
2023-03-21T09:58:48.602Z,54.80
2023-03-21T10:01:47.111Z,54.00
2023-03-21T10:04:33.924Z,54.20
2023-03-21T10:07:04.788Z,54.40
2023-03-21T10:09:35.296Z,54.40
2023-03-21T10:12:25.979Z,54.30
2023-03-21T10:15:07.601Z,54.30
2023-03-21T10:17:58.248Z,53.90
2023-03-21T10:20:38.231Z,53.90
2023-03-21T10:23:20.804Z,54.10
2023-03-21T10:26:00.386Z,53.80
2023-03-21T10:28:53.060Z,53.60
2023-03-21T10:34:26.683Z,53.30
2023-03-21T10:36:55.845Z,54.00
2023-03-21T10:39:40.132Z,53.10
2023-03-21T10:42:09.527Z,54.20
2023-03-21T10:44:42.384Z,56.00
2023-03-21T10:47:14.278Z,59.20
2023-03-21T10:52:57.574Z,59.80
2023-03-21T10:55:35.505Z,60.50
2023-03-21T10:58:19.356Z,60.70
2023-03-21T11:00:53.736Z,60.80
2023-03-21T11:03:35.587Z,60.80
2023-03-21T11:06:24.379Z,60.50
2023-03-21T11:08:58.231Z,61.40
2023-03-21T11:12:05.677Z,61.60
2023-03-21T11:14:51.003Z,61.60
2023-03-21T11:17:31.163Z,62.30
2023-03-21T11:20:15.447Z,62.40
2023-03-21T11:22:51.797Z,62.30
2023-03-21T11:25:41.187Z,63.20
2023-03-21T11:28:16.476Z,62.90
2023-03-21T11:31:21.089Z,63.10
2023-03-21T11:33:59.518Z,63.80
2023-03-21T11:36:41.993Z,63.60
2023-03-21T11:39:37.586Z,63.90
2023-03-21T11:42:28.960Z,63.90
2023-03-21T11:45:41.742Z,63.90
2023-03-21T11:48:18.378Z,64.20
2023-03-21T11:50:50.608Z,63.90
2023-03-21T11:53:53.808Z,64.30
2023-03-21T11:56:44.501Z,64.30
2023-03-21T11:59:48.487Z,64.20
2023-03-21T12:03:00.876Z,64.50
2023-03-21T12:05:46.581Z,64.00
2023-03-21T12:08:44.987Z,64.40
2023-03-21T12:11:38.569Z,65.50
2023-03-21T12:14:36.856Z,64.70
2023-03-21T12:17:40.752Z,64.50
2023-03-21T12:20:48.284Z,64.90
2023-03-21T12:23:49.714Z,64.80
2023-03-21T12:26:39.409Z,65.20
2023-03-21T12:29:50.062Z,65.10
2023-03-21T12:32:55.728Z,65.20
2023-03-21T12:35:47.710Z,65.00
2023-03-21T12:38:56.878Z,65.10
2023-03-21T12:41:54.253Z,65.50
2023-03-21T12:44:26.036Z,64.90
2023-03-21T12:47:06.685Z,64.90
2023-03-21T12:50:31.442Z,64.40
2023-03-21T12:53:07.684Z,64.60
2023-03-21T12:55:37.022Z,65.00
2023-03-21T12:58:30.340Z,64.80
2023-03-21T13:01:07.308Z,65.00
2023-03-21T13:03:45.903Z,65.00
2023-03-21T13:06:19.661Z,64.80
2023-03-21T13:09:11.271Z,65.30
2023-03-21T13:11:42.504Z,65.10
2023-03-21T13:14:33.220Z,64.80
2023-03-21T13:17:28.272Z,64.60
2023-03-21T13:20:17.744Z,64.50
2023-03-21T13:22:49.527Z,64.80
2023-03-21T13:25:31.868Z,65.00
2023-03-21T13:28:05.290Z,64.50
2023-03-21T13:30:33.570Z,65.00
2023-03-21T13:33:12.628Z,65.10
2023-03-21T13:35:59.371Z,64.60
2023-03-21T13:41:37.646Z,64.90
2023-03-21T13:44:04.343Z,65.00
2023-03-21T13:47:02.762Z,64.70
2023-03-21T13:49:38.031Z,64.80
2023-03-21T13:52:32.718Z,65.10
2023-03-21T13:55:07.902Z,65.10
2023-03-21T13:57:40.738Z,65.00
2023-03-21T14:00:32.962Z,64.90
2023-03-21T14:03:18.815Z,65.00
2023-03-21T14:05:54.479Z,65.10
2023-03-21T14:08:36.878Z,64.50
2023-03-21T14:11:21.823Z,64.90
2023-03-21T14:14:02.961Z,64.60
2023-03-21T14:16:36.854Z,65.10
2023-03-21T14:19:07.366Z,65.30
2023-03-21T14:21:42.550Z,65.20
2023-03-21T14:27:01.652Z,64.40
2023-03-21T14:29:40.575Z,64.70
2023-03-21T14:32:20.265Z,64.90
2023-03-21T14:34:49.047Z,64.80
2023-03-21T14:37:41.622Z,65.00
2023-03-21T14:40:29.688Z,64.50
2023-03-21T14:43:00.237Z,65.00
2023-03-21T14:45:33.464Z,65.80
2023-03-21T14:48:19.392Z,65.10
2023-03-21T14:51:04.129Z,65.20
2023-03-21T14:53:39.493Z,65.00
2023-03-21T14:56:30.103Z,64.90
2023-03-21T14:59:05.485Z,64.70
2023-03-21T15:01:38.888Z,64.90
2023-03-21T15:04:08.388Z,65.00
2023-03-21T15:06:56.494Z,64.90
2023-03-21T15:09:30.637Z,65.00
2023-03-21T15:11:59.712Z,64.90
2023-03-21T15:14:37.432Z,65.30
2023-03-21T15:17:11.032Z,65.20
2023-03-21T15:19:40.324Z,64.80
2023-03-21T15:22:41.262Z,65.20
2023-03-21T15:25:18.927Z,65.20
2023-03-21T15:27:54.947Z,65.20
2023-03-21T15:33:15.311Z,65.00
2023-03-21T15:35:58.014Z,65.40
2023-03-21T15:38:42.518Z,65.30
2023-03-21T15:41:32.376Z,65.20
2023-03-21T15:44:22.585Z,65.10
2023-03-21T15:46:54.008Z,65.20
2023-03-21T15:49:29.562Z,65.10
2023-03-21T15:52:14.023Z,65.10
2023-03-21T15:54:52.623Z,65.30
2023-03-21T16:00:31.436Z,65.40
2023-03-21T16:03:12.630Z,65.20
2023-03-21T16:05:42.870Z,65.10
2023-03-21T16:08:30.462Z,65.20
2023-03-21T16:11:16.082Z,65.30
2023-03-21T16:13:45.312Z,65.20
2023-03-21T16:16:30.784Z,65.10
2023-03-21T16:18:59.386Z,64.90
2023-03-21T16:21:32.982Z,65.10
2023-03-21T16:24:04.667Z,65.30
2023-03-21T16:26:36.303Z,65.10
2023-03-21T16:29:10.814Z,65.10
2023-03-21T16:31:39.528Z,65.00
2023-03-21T16:34:13.102Z,65.00
2023-03-21T16:36:41.784Z,65.40
2023-03-21T16:39:27.203Z,65.10
2023-03-21T16:41:59.498Z,64.80
2023-03-21T16:44:30.346Z,64.80
2023-03-21T16:47:03.125Z,64.80
2023-03-21T16:49:39.489Z,64.90
2023-03-21T16:52:13.765Z,65.00
2023-03-21T16:54:45.617Z,64.80
2023-03-21T16:57:34.664Z,64.70
2023-03-21T17:00:09.840Z,65.00
2023-03-21T17:02:39.954Z,64.80
2023-03-21T17:05:15.148Z,64.80
2023-03-21T17:07:44.987Z,64.80
2023-03-21T17:10:28.844Z,64.80
2023-03-21T17:13:01.116Z,64.70
2023-03-21T17:15:31.601Z,64.80
2023-03-21T17:18:03.278Z,64.70
2023-03-21T17:20:37.274Z,64.70
2023-03-21T17:23:10.750Z,64.80
2023-03-21T17:25:43.102Z,64.50
2023-03-21T17:28:14.749Z,64.70
2023-03-21T17:30:44.632Z,64.80
2023-03-21T17:33:17.926Z,64.60
2023-03-21T17:38:33.563Z,64.50
2023-03-21T17:41:12.636Z,64.60
2023-03-21T17:43:41.864Z,64.30
2023-03-21T17:46:18.087Z,64.10
2023-03-21T17:48:48.842Z,63.40
2023-03-21T17:51:21.465Z,63.60
2023-03-21T17:54:00.849Z,63.70
2023-03-21T17:56:41.953Z,64.10
2023-03-21T17:59:18.038Z,64.40
2023-03-21T18:01:46.888Z,64.70
2023-03-21T18:04:19.494Z,64.60
2023-03-21T18:06:50.916Z,64.50
2023-03-21T18:09:23.036Z,64.40
2023-03-21T18:11:54.653Z,64.40
2023-03-21T18:17:06.445Z,64.30
2023-03-21T18:19:40.484Z,64.20
2023-03-21T18:22:10.800Z,64.30
2023-03-21T18:24:43.411Z,64.40
2023-03-21T18:27:17.154Z,64.20
2023-03-21T18:30:25.953Z,64.30
2023-03-21T18:32:38.663Z,64.70
2023-03-21T18:35:24.725Z,64.20
2023-03-21T18:37:53.825Z,64.30
2023-03-21T18:40:26.365Z,64.20
2023-03-21T18:43:49.915Z,64.30
2023-03-21T18:45:52.856Z,64.10
2023-03-21T18:48:23.209Z,64.20
2023-03-21T18:50:55.074Z,63.90
2023-03-21T18:53:25.089Z,63.90
2023-03-21T18:55:53.716Z,63.90
2023-03-21T18:58:25.611Z,63.90
2023-03-21T19:01:01.619Z,63.80
2023-03-21T19:03:37.257Z,63.70
2023-03-21T19:06:07.664Z,63.70
2023-03-21T19:11:24.423Z,63.70
2023-03-21T19:13:58.377Z,64.20
2023-03-21T19:16:30.283Z,63.70
2023-03-21T19:19:03.556Z,63.90
2023-03-21T19:21:30.982Z,63.80
2023-03-21T19:24:26.477Z,63.50
2023-03-21T19:26:50.270Z,63.40
2023-03-21T19:29:18.164Z,63.40
2023-03-21T19:31:55.924Z,63.30
2023-03-21T19:34:29.810Z,63.90
2023-03-21T19:37:02.636Z,63.50
2023-03-21T19:39:32.370Z,63.50
2023-03-21T19:42:16.000Z,63.50
2023-03-21T19:44:47.951Z,63.50
2023-03-21T19:47:20.787Z,63.70
2023-03-21T19:52:48.490Z,63.50
2023-03-21T19:55:17.589Z,63.50
2023-03-21T19:57:50.365Z,63.60
2023-03-21T20:00:19.855Z,63.40
2023-03-21T20:02:53.433Z,63.40
2023-03-21T20:05:35.957Z,63.40
2023-03-21T20:08:10.936Z,63.20
2023-03-21T20:10:41.311Z,63.40
2023-03-21T20:13:11.487Z,63.40
2023-03-21T20:15:47.928Z,63.40
2023-03-21T20:18:18.066Z,63.50
2023-03-21T20:20:49.096Z,63.50
2023-03-21T20:23:17.392Z,63.30
2023-03-21T20:25:47.133Z,63.70
2023-03-21T20:28:25.089Z,63.30
2023-03-21T20:31:20.230Z,63.30
2023-03-21T20:33:52.372Z,63.30
2023-03-21T20:36:38.632Z,63.40
2023-03-21T20:39:17.357Z,63.30
2023-03-21T20:41:47.571Z,63.60
2023-03-21T20:44:57.284Z,63.40
2023-03-21T20:47:14.783Z,63.40
2023-03-21T20:49:44.902Z,63.30
2023-03-21T20:55:12.041Z,63.30
2023-03-21T20:57:44.535Z,63.40
2023-03-21T21:00:14.897Z,63.30
2023-03-21T21:02:47.785Z,63.40
2023-03-21T21:05:30.844Z,63.20
2023-03-21T21:08:04.226Z,63.30
2023-03-21T21:10:44.730Z,63.20
2023-03-21T21:13:27.447Z,63.30
2023-03-21T21:15:58.576Z,63.30
2023-03-21T21:18:31.703Z,63.50
2023-03-21T21:21:04.756Z,63.20
2023-03-21T21:23:46.003Z,63.20
2023-03-21T21:26:19.948Z,63.30
2023-03-21T21:28:50.224Z,63.20
2023-03-21T21:31:20.854Z,63.30
2023-03-21T21:33:50.164Z,63.20
2023-03-21T21:36:18.011Z,63.30
2023-03-21T21:39:00.600Z,63.30
2023-03-21T21:41:28.818Z,63.30
2023-03-21T21:43:59.981Z,62.90
2023-03-21T21:46:35.019Z,63.00
2023-03-21T21:49:09.255Z,63.30
2023-03-21T21:51:38.759Z,63.30
2023-03-21T21:54:10.621Z,63.30
2023-03-21T21:56:42.966Z,63.20
2023-03-21T21:59:20.343Z,63.30
2023-03-21T22:01:55.735Z,63.30
2023-03-21T22:04:30.113Z,63.30
2023-03-21T22:07:04.409Z,63.30
2023-03-21T22:09:35.283Z,63.30
2023-03-21T22:14:45.911Z,63.20
2023-03-21T22:17:16.208Z,63.20
2023-03-21T22:19:55.813Z,63.30
2023-03-21T22:22:39.608Z,63.20
2023-03-21T22:25:13.684Z,63.20
2023-03-21T22:27:41.302Z,63.20
2023-03-21T22:30:14.493Z,63.20
2023-03-21T22:32:51.543Z,63.20
2023-03-21T22:35:24.757Z,63.20
2023-03-21T22:37:57.234Z,63.20
2023-03-21T22:40:25.669Z,63.20
2023-03-21T22:42:57.348Z,63.20
2023-03-21T22:45:26.237Z,63.20
2023-03-21T22:47:55.326Z,63.20
2023-03-21T22:50:26.866Z,63.20
2023-03-21T22:52:54.939Z,63.30
2023-03-21T22:55:27.070Z,63.30
2023-03-21T22:58:00.596Z,63.20
2023-03-21T23:00:29.632Z,63.20
2023-03-21T23:03:00.215Z,63.20
2023-03-21T23:05:28.281Z,63.20
2023-03-21T23:07:58.208Z,63.20
2023-03-21T23:10:28.857Z,63.10
2023-03-21T23:12:56.941Z,63.20
2023-03-21T23:15:28.558Z,63.10
2023-03-21T23:17:56.751Z,63.20
2023-03-21T23:20:29.202Z,63.00
2023-03-21T23:23:00.862Z,63.00
2023-03-21T23:28:16.312Z,63.10
2023-03-21T23:30:52.343Z,63.20
2023-03-21T23:33:23.592Z,63.10
2023-03-21T23:35:51.713Z,63.10
2023-03-21T23:38:22.999Z,63.00
2023-03-21T23:40:54.006Z,63.10
2023-03-21T23:43:29.922Z,63.10
2023-03-21T23:46:02.138Z,63.10
2023-03-21T23:48:34.055Z,63.00
2023-03-21T23:51:03.933Z,63.10
2023-03-21T23:53:34.624Z,63.00
2023-03-21T23:56:16.592Z,63.10
2023-03-21T23:58:47.397Z,63.00
